sensor_id;sensor_type;location;lat;lon;timestamp;P1;durP1;ratioP1;P2;durP2;ratioP2
70707;SDS011;58277;47.316;18.908;2022-12-22T00:00:23;91.63;;;26.43;;
70707;SDS011;58277;47.316;18.908;2022-12-22T00:03:08;79.93;;;24.33;;
70707;SDS011;58277;47.316;18.908;2022-12-22T00:05:53;79.45;;;23.83;;
70707;SDS011;58277;47.316;18.908;2022-12-22T00:08:34;73.20;;;23.38;;
70707;SDS011;58277;47.316;18.908;2022-12-22T00:11:15;86.75;;;25.23;;
70707;SDS011;58277;47.316;18.908;2022-12-22T00:13:56;80.67;;;25.27;;
70707;SDS011;58277;47.316;18.908;2022-12-22T00:16:38;81.20;;;23.67;;
70707;SDS011;58277;47.316;18.908;2022-12-22T00:19:20;75.20;;;24.27;;
70707;SDS011;58277;47.316;18.908;2022-12-22T00:22:21;74.03;;;23.17;;
70707;SDS011;58277;47.316;18.908;2022-12-22T00:25:04;77.05;;;24.27;;
70707;SDS011;58277;47.316;18.908;2022-12-22T00:27:46;76.87;;;24.33;;
70707;SDS011;58277;47.316;18.908;2022-12-22T00:30:27;80.00;;;23.88;;
70707;SDS011;58277;47.316;18.908;2022-12-22T00:33:09;73.97;;;24.13;;
70707;SDS011;58277;47.316;18.908;2022-12-22T00:35:53;77.78;;;24.05;;
70707;SDS011;58277;47.316;18.908;2022-12-22T00:38:34;80.80;;;24.98;;
70707;SDS011;58277;47.316;18.908;2022-12-22T00:41:16;81.80;;;25.23;;
70707;SDS011;58277;47.316;18.908;2022-12-22T00:43:57;86.30;;;24.73;;
70707;SDS011;58277;47.316;18.908;2022-12-22T00:46:38;79.55;;;25.10;;
70707;SDS011;58277;47.316;18.908;2022-12-22T00:49:22;81.22;;;24.92;;
70707;SDS011;58277;47.316;18.908;2022-12-22T00:52:06;82.32;;;25.27;;
70707;SDS011;58277;47.316;18.908;2022-12-22T00:54:47;84.53;;;25.40;;
70707;SDS011;58277;47.316;18.908;2022-12-22T00:57:33;87.03;;;25.48;;
70707;SDS011;58277;47.316;18.908;2022-12-22T01:00:16;85.38;;;25.15;;
70707;SDS011;58277;47.316;18.908;2022-12-22T01:02:59;88.78;;;27.60;;
70707;SDS011;58277;47.316;18.908;2022-12-22T01:05:40;87.85;;;25.83;;
70707;SDS011;58277;47.316;18.908;2022-12-22T01:08:22;79.77;;;26.13;;
70707;SDS011;58277;47.316;18.908;2022-12-22T01:11:03;77.70;;;24.65;;
70707;SDS011;58277;47.316;18.908;2022-12-22T01:13:45;80.20;;;25.95;;
70707;SDS011;58277;47.316;18.908;2022-12-22T01:16:26;76.28;;;26.42;;
70707;SDS011;58277;47.316;18.908;2022-12-22T01:19:08;85.53;;;27.00;;
70707;SDS011;58277;47.316;18.908;2022-12-22T01:21:49;88.73;;;26.63;;
70707;SDS011;58277;47.316;18.908;2022-12-22T01:24:30;75.43;;;24.73;;
70707;SDS011;58277;47.316;18.908;2022-12-22T01:27:11;84.38;;;26.42;;
70707;SDS011;58277;47.316;18.908;2022-12-22T01:29:53;82.20;;;26.63;;
70707;SDS011;58277;47.316;18.908;2022-12-22T01:32:35;80.68;;;25.05;;
70707;SDS011;58277;47.316;18.908;2022-12-22T01:38:02;83.38;;;26.63;;
70707;SDS011;58277;47.316;18.908;2022-12-22T01:40:44;81.95;;;26.15;;
70707;SDS011;58277;47.316;18.908;2022-12-22T01:43:26;80.78;;;25.52;;
70707;SDS011;58277;47.316;18.908;2022-12-22T01:46:20;83.40;;;26.63;;
70707;SDS011;58277;47.316;18.908;2022-12-22T01:49:51;78.30;;;25.57;;
70707;SDS011;58277;47.316;18.908;2022-12-22T01:52:17;77.75;;;24.83;;
70707;SDS011;58277;47.316;18.908;2022-12-22T01:55:03;83.22;;;26.63;;
70707;SDS011;58277;47.316;18.908;2022-12-22T01:57:50;79.00;;;25.33;;
70707;SDS011;58277;47.316;18.908;2022-12-22T02:00:31;82.35;;;26.52;;
70707;SDS011;58277;47.316;18.908;2022-12-22T02:03:16;84.93;;;26.67;;
70707;SDS011;58277;47.316;18.908;2022-12-22T02:06:41;83.47;;;25.65;;
70707;SDS011;58277;47.316;18.908;2022-12-22T02:15:31;80.35;;;25.73;;
70707;SDS011;58277;47.316;18.908;2022-12-22T02:18:22;73.53;;;25.53;;
70707;SDS011;58277;47.316;18.908;2022-12-22T02:21:09;87.00;;;27.08;;
70707;SDS011;58277;47.316;18.908;2022-12-22T02:26:45;79.43;;;26.80;;
70707;SDS011;58277;47.316;18.908;2022-12-22T02:29:31;76.10;;;26.35;;
70707;SDS011;58277;47.316;18.908;2022-12-22T02:32:16;83.77;;;27.77;;
70707;SDS011;58277;47.316;18.908;2022-12-22T02:34:58;81.47;;;26.17;;
70707;SDS011;58277;47.316;18.908;2022-12-22T02:43:37;77.93;;;26.05;;
70707;SDS011;58277;47.316;18.908;2022-12-22T02:53:04;81.97;;;27.23;;
70707;SDS011;58277;47.316;18.908;2022-12-22T02:55:46;82.30;;;27.45;;
70707;SDS011;58277;47.316;18.908;2022-12-22T02:58:28;75.28;;;25.88;;
70707;SDS011;58277;47.316;18.908;2022-12-22T03:01:12;72.77;;;25.43;;
70707;SDS011;58277;47.316;18.908;2022-12-22T03:03:54;76.28;;;26.30;;
70707;SDS011;58277;47.316;18.908;2022-12-22T03:06:36;82.40;;;26.45;;
70707;SDS011;58277;47.316;18.908;2022-12-22T03:09:17;82.45;;;27.27;;
70707;SDS011;58277;47.316;18.908;2022-12-22T03:11:58;83.13;;;27.60;;
70707;SDS011;58277;47.316;18.908;2022-12-22T03:14:39;70.10;;;25.50;;
70707;SDS011;58277;47.316;18.908;2022-12-22T03:17:20;75.28;;;25.92;;
70707;SDS011;58277;47.316;18.908;2022-12-22T03:20:02;74.93;;;26.13;;
70707;SDS011;58277;47.316;18.908;2022-12-22T03:22:43;75.50;;;26.20;;
70707;SDS011;58277;47.316;18.908;2022-12-22T03:25:25;78.35;;;26.35;;
70707;SDS011;58277;47.316;18.908;2022-12-22T03:28:07;73.77;;;25.73;;
70707;SDS011;58277;47.316;18.908;2022-12-22T03:30:30;77.70;;;25.30;;
70707;SDS011;58277;47.316;18.908;2022-12-22T03:32:53;79.00;;;27.30;;
70707;SDS011;58277;47.316;18.908;2022-12-22T03:35:16;79.72;;;26.92;;
70707;SDS011;58277;47.316;18.908;2022-12-22T03:37:39;75.72;;;25.95;;
70707;SDS011;58277;47.316;18.908;2022-12-22T03:40:03;76.13;;;26.43;;
70707;SDS011;58277;47.316;18.908;2022-12-22T03:42:27;80.20;;;27.15;;
70707;SDS011;58277;47.316;18.908;2022-12-22T03:45:09;81.68;;;27.45;;
70707;SDS011;58277;47.316;18.908;2022-12-22T03:47:50;72.75;;;25.83;;
70707;SDS011;58277;47.316;18.908;2022-12-22T03:50:13;78.72;;;27.52;;
70707;SDS011;58277;47.316;18.908;2022-12-22T03:52:36;74.07;;;26.57;;
70707;SDS011;58277;47.316;18.908;2022-12-22T03:54:58;82.28;;;26.60;;
70707;SDS011;58277;47.316;18.908;2022-12-22T03:57:21;71.72;;;25.92;;
70707;SDS011;58277;47.316;18.908;2022-12-22T03:59:45;84.93;;;27.08;;
70707;SDS011;58277;47.316;18.908;2022-12-22T04:02:08;84.05;;;28.00;;
70707;SDS011;58277;47.316;18.908;2022-12-22T04:04:30;79.67;;;27.20;;
70707;SDS011;58277;47.316;18.908;2022-12-22T04:06:54;77.80;;;27.55;;
70707;SDS011;58277;47.316;18.908;2022-12-22T04:09:17;70.43;;;26.55;;
70707;SDS011;58277;47.316;18.908;2022-12-22T04:11:39;87.97;;;28.10;;
70707;SDS011;58277;47.316;18.908;2022-12-22T04:14:21;75.95;;;26.45;;
70707;SDS011;58277;47.316;18.908;2022-12-22T04:16:52;81.47;;;28.60;;
70707;SDS011;58277;47.316;18.908;2022-12-22T04:19:15;79.43;;;26.90;;
70707;SDS011;58277;47.316;18.908;2022-12-22T04:21:38;79.40;;;26.98;;
70707;SDS011;58277;47.316;18.908;2022-12-22T04:24:01;79.65;;;27.15;;
70707;SDS011;58277;47.316;18.908;2022-12-22T04:26:24;80.05;;;27.88;;
70707;SDS011;58277;47.316;18.908;2022-12-22T04:28:48;83.20;;;28.20;;
70707;SDS011;58277;47.316;18.908;2022-12-22T04:31:11;82.35;;;27.55;;
70707;SDS011;58277;47.316;18.908;2022-12-22T04:33:34;86.95;;;27.77;;
70707;SDS011;58277;47.316;18.908;2022-12-22T04:35:56;86.03;;;28.58;;
70707;SDS011;58277;47.316;18.908;2022-12-22T04:38:19;80.75;;;27.50;;
70707;SDS011;58277;47.316;18.908;2022-12-22T04:40:42;84.67;;;27.57;;
70707;SDS011;58277;47.316;18.908;2022-12-22T04:43:05;88.13;;;28.35;;
70707;SDS011;58277;47.316;18.908;2022-12-22T04:45:27;90.72;;;27.48;;
70707;SDS011;58277;47.316;18.908;2022-12-22T04:47:50;85.50;;;28.45;;
70707;SDS011;58277;47.316;18.908;2022-12-22T04:50:13;84.35;;;28.02;;
70707;SDS011;58277;47.316;18.908;2022-12-22T04:52:36;84.03;;;27.50;;
70707;SDS011;58277;47.316;18.908;2022-12-22T04:54:59;85.43;;;26.48;;
70707;SDS011;58277;47.316;18.908;2022-12-22T04:57:22;84.43;;;27.55;;
70707;SDS011;58277;47.316;18.908;2022-12-22T04:59:46;84.60;;;27.25;;
70707;SDS011;58277;47.316;18.908;2022-12-22T05:02:09;81.60;;;27.42;;
70707;SDS011;58277;47.316;18.908;2022-12-22T05:04:32;97.77;;;29.70;;
70707;SDS011;58277;47.316;18.908;2022-12-22T05:06:55;87.97;;;28.20;;
70707;SDS011;58277;47.316;18.908;2022-12-22T05:09:17;89.38;;;28.05;;
70707;SDS011;58277;47.316;18.908;2022-12-22T05:11:40;85.35;;;28.85;;
70707;SDS011;58277;47.316;18.908;2022-12-22T05:16:47;88.37;;;29.27;;
70707;SDS011;58277;47.316;18.908;2022-12-22T05:19:10;86.47;;;28.13;;
70707;SDS011;58277;47.316;18.908;2022-12-22T05:21:33;89.13;;;28.85;;
70707;SDS011;58277;47.316;18.908;2022-12-22T05:23:56;80.10;;;27.55;;
70707;SDS011;58277;47.316;18.908;2022-12-22T05:26:18;86.78;;;27.20;;
70707;SDS011;58277;47.316;18.908;2022-12-22T05:28:42;79.50;;;27.33;;
70707;SDS011;58277;47.316;18.908;2022-12-22T05:31:06;83.70;;;26.73;;
70707;SDS011;58277;47.316;18.908;2022-12-22T05:33:30;82.00;;;28.10;;
70707;SDS011;58277;47.316;18.908;2022-12-22T05:35:53;85.95;;;27.50;;
70707;SDS011;58277;47.316;18.908;2022-12-22T05:38:15;85.28;;;29.00;;
70707;SDS011;58277;47.316;18.908;2022-12-22T05:40:39;80.83;;;26.60;;
70707;SDS011;58277;47.316;18.908;2022-12-22T05:43:02;87.00;;;27.80;;
70707;SDS011;58277;47.316;18.908;2022-12-22T05:45:24;82.07;;;26.83;;
70707;SDS011;58277;47.316;18.908;2022-12-22T05:47:48;91.75;;;28.65;;
70707;SDS011;58277;47.316;18.908;2022-12-22T05:50:13;88.28;;;28.45;;
70707;SDS011;58277;47.316;18.908;2022-12-22T05:52:38;85.47;;;27.67;;
70707;SDS011;58277;47.316;18.908;2022-12-22T05:55:01;90.22;;;27.60;;
70707;SDS011;58277;47.316;18.908;2022-12-22T05:57:24;86.53;;;27.95;;
70707;SDS011;58277;47.316;18.908;2022-12-22T05:59:47;84.90;;;27.60;;
70707;SDS011;58277;47.316;18.908;2022-12-22T06:02:10;81.60;;;25.85;;
70707;SDS011;58277;47.316;18.908;2022-12-22T06:04:33;82.50;;;28.07;;
70707;SDS011;58277;47.316;18.908;2022-12-22T06:06:55;84.88;;;27.52;;
70707;SDS011;58277;47.316;18.908;2022-12-22T06:09:18;81.88;;;26.48;;
70707;SDS011;58277;47.316;18.908;2022-12-22T06:11:41;91.78;;;27.23;;
70707;SDS011;58277;47.316;18.908;2022-12-22T06:14:03;84.90;;;27.40;;
70707;SDS011;58277;47.316;18.908;2022-12-22T06:16:26;83.33;;;27.43;;
70707;SDS011;58277;47.316;18.908;2022-12-22T06:18:49;83.53;;;26.63;;
70707;SDS011;58277;47.316;18.908;2022-12-22T06:21:12;89.93;;;27.25;;
70707;SDS011;58277;47.316;18.908;2022-12-22T06:23:34;90.85;;;26.45;;
70707;SDS011;58277;47.316;18.908;2022-12-22T06:25:58;80.43;;;26.38;;
70707;SDS011;58277;47.316;18.908;2022-12-22T06:28:22;84.47;;;27.23;;
70707;SDS011;58277;47.316;18.908;2022-12-22T06:30:46;79.82;;;26.25;;
70707;SDS011;58277;47.316;18.908;2022-12-22T06:33:09;84.78;;;27.13;;
70707;SDS011;58277;47.316;18.908;2022-12-22T06:35:32;89.45;;;26.20;;
70707;SDS011;58277;47.316;18.908;2022-12-22T06:37:54;84.35;;;26.67;;
70707;SDS011;58277;47.316;18.908;2022-12-22T06:40:17;86.47;;;27.47;;
70707;SDS011;58277;47.316;18.908;2022-12-22T06:42:40;88.45;;;27.55;;
70707;SDS011;58277;47.316;18.908;2022-12-22T06:45:31;88.00;;;27.95;;
70707;SDS011;58277;47.316;18.908;2022-12-22T06:47:54;91.28;;;27.25;;
70707;SDS011;58277;47.316;18.908;2022-12-22T06:50:17;92.60;;;26.73;;
70707;SDS011;58277;47.316;18.908;2022-12-22T06:52:39;86.07;;;27.23;;
70707;SDS011;58277;47.316;18.908;2022-12-22T06:55:02;82.90;;;27.05;;
70707;SDS011;58277;47.316;18.908;2022-12-22T06:57:25;78.03;;;26.33;;
70707;SDS011;58277;47.316;18.908;2022-12-22T06:59:49;91.07;;;29.00;;
70707;SDS011;58277;47.316;18.908;2022-12-22T07:02:18;101.00;;;31.58;;
70707;SDS011;58277;47.316;18.908;2022-12-22T07:04:41;96.07;;;29.10;;
70707;SDS011;58277;47.316;18.908;2022-12-22T07:07:04;86.78;;;28.92;;
70707;SDS011;58277;47.316;18.908;2022-12-22T07:09:27;106.93;;;32.70;;
70707;SDS011;58277;47.316;18.908;2022-12-22T07:11:50;103.78;;;33.25;;
70707;SDS011;58277;47.316;18.908;2022-12-22T07:14:13;91.15;;;32.03;;
70707;SDS011;58277;47.316;18.908;2022-12-22T07:16:35;93.27;;;31.23;;
70707;SDS011;58277;47.316;18.908;2022-12-22T07:18:58;94.25;;;32.10;;
70707;SDS011;58277;47.316;18.908;2022-12-22T07:21:21;126.10;;;39.97;;
70707;SDS011;58277;47.316;18.908;2022-12-22T07:23:44;102.57;;;34.50;;
70707;SDS011;58277;47.316;18.908;2022-12-22T07:26:07;102.45;;;33.08;;
70707;SDS011;58277;47.316;18.908;2022-12-22T07:28:34;101.57;;;32.70;;
70707;SDS011;58277;47.316;18.908;2022-12-22T07:30:58;109.75;;;35.50;;
70707;SDS011;58277;47.316;18.908;2022-12-22T07:33:21;123.40;;;38.08;;
70707;SDS011;58277;47.316;18.908;2022-12-22T07:35:44;117.97;;;36.80;;
70707;SDS011;58277;47.316;18.908;2022-12-22T07:38:07;116.40;;;36.05;;
70707;SDS011;58277;47.316;18.908;2022-12-22T07:40:30;119.93;;;35.73;;
70707;SDS011;58277;47.316;18.908;2022-12-22T07:42:56;111.80;;;35.15;;
70707;SDS011;58277;47.316;18.908;2022-12-22T07:45:19;92.65;;;29.10;;
70707;SDS011;58277;47.316;18.908;2022-12-22T07:47:43;90.07;;;28.85;;
70707;SDS011;58277;47.316;18.908;2022-12-22T07:50:08;84.85;;;27.50;;
70707;SDS011;58277;47.316;18.908;2022-12-22T07:52:54;84.80;;;28.03;;
70707;SDS011;58277;47.316;18.908;2022-12-22T07:55:18;92.78;;;27.45;;
70707;SDS011;58277;47.316;18.908;2022-12-22T07:57:41;86.47;;;27.38;;
70707;SDS011;58277;47.316;18.908;2022-12-22T08:00:04;87.07;;;27.08;;
70707;SDS011;58277;47.316;18.908;2022-12-22T08:02:33;87.43;;;27.95;;
70707;SDS011;58277;47.316;18.908;2022-12-22T08:05:00;82.43;;;27.17;;
70707;SDS011;58277;47.316;18.908;2022-12-22T08:07:23;86.32;;;26.65;;
70707;SDS011;58277;47.316;18.908;2022-12-22T08:09:46;87.95;;;27.23;;
70707;SDS011;58277;47.316;18.908;2022-12-22T08:12:08;88.10;;;28.13;;
70707;SDS011;58277;47.316;18.908;2022-12-22T08:14:31;83.30;;;27.65;;
70707;SDS011;58277;47.316;18.908;2022-12-22T08:16:54;92.07;;;27.70;;
70707;SDS011;58277;47.316;18.908;2022-12-22T08:19:17;93.10;;;28.25;;
70707;SDS011;58277;47.316;18.908;2022-12-22T08:21:40;80.80;;;27.60;;
70707;SDS011;58277;47.316;18.908;2022-12-22T08:24:13;86.35;;;29.17;;
70707;SDS011;58277;47.316;18.908;2022-12-22T08:26:38;87.22;;;28.23;;
70707;SDS011;58277;47.316;18.908;2022-12-22T08:29:15;81.83;;;27.57;;
70707;SDS011;58277;47.316;18.908;2022-12-22T08:31:43;80.43;;;27.65;;
70707;SDS011;58277;47.316;18.908;2022-12-22T08:34:06;87.03;;;28.35;;
70707;SDS011;58277;47.316;18.908;2022-12-22T08:36:32;78.32;;;26.35;;
70707;SDS011;58277;47.316;18.908;2022-12-22T08:38:56;87.10;;;27.42;;
70707;SDS011;58277;47.316;18.908;2022-12-22T08:41:21;82.87;;;27.30;;
70707;SDS011;58277;47.316;18.908;2022-12-22T08:44:04;86.85;;;27.70;;
70707;SDS011;58277;47.316;18.908;2022-12-22T08:46:26;88.70;;;27.67;;
70707;SDS011;58277;47.316;18.908;2022-12-22T08:48:49;83.10;;;28.13;;
70707;SDS011;58277;47.316;18.908;2022-12-22T08:51:12;90.72;;;28.42;;
70707;SDS011;58277;47.316;18.908;2022-12-22T08:53:35;88.40;;;29.10;;
70707;SDS011;58277;47.316;18.908;2022-12-22T08:56:17;88.97;;;28.15;;
70707;SDS011;58277;47.316;18.908;2022-12-22T08:58:40;86.50;;;28.45;;
70707;SDS011;58277;47.316;18.908;2022-12-22T09:01:02;87.78;;;29.33;;
70707;SDS011;58277;47.316;18.908;2022-12-22T09:03:25;92.60;;;30.55;;
70707;SDS011;58277;47.316;18.908;2022-12-22T09:05:48;96.23;;;30.90;;
70707;SDS011;58277;47.316;18.908;2022-12-22T09:08:11;94.18;;;30.35;;
70707;SDS011;58277;47.316;18.908;2022-12-22T09:10:33;89.47;;;29.77;;
70707;SDS011;58277;47.316;18.908;2022-12-22T09:12:57;89.93;;;29.50;;
70707;SDS011;58277;47.316;18.908;2022-12-22T09:15:20;95.05;;;31.58;;
70707;SDS011;58277;47.316;18.908;2022-12-22T09:17:42;88.73;;;30.80;;
70707;SDS011;58277;47.316;18.908;2022-12-22T09:20:06;88.35;;;29.20;;
70707;SDS011;58277;47.316;18.908;2022-12-22T09:22:29;89.90;;;31.52;;
70707;SDS011;58277;47.316;18.908;2022-12-22T09:24:52;88.10;;;29.17;;
70707;SDS011;58277;47.316;18.908;2022-12-22T09:27:15;94.30;;;30.23;;
70707;SDS011;58277;47.316;18.908;2022-12-22T09:29:38;86.53;;;29.20;;
70707;SDS011;58277;47.316;18.908;2022-12-22T09:32:02;86.72;;;29.00;;
70707;SDS011;58277;47.316;18.908;2022-12-22T09:34:25;88.75;;;29.13;;
70707;SDS011;58277;47.316;18.908;2022-12-22T09:36:48;83.57;;;28.45;;
70707;SDS011;58277;47.316;18.908;2022-12-22T09:39:11;86.95;;;29.08;;
70707;SDS011;58277;47.316;18.908;2022-12-22T09:41:35;90.27;;;30.07;;
70707;SDS011;58277;47.316;18.908;2022-12-22T09:44:03;91.55;;;30.30;;
70707;SDS011;58277;47.316;18.908;2022-12-22T09:46:28;90.25;;;31.30;;
70707;SDS011;58277;47.316;18.908;2022-12-22T09:48:54;93.20;;;30.67;;
70707;SDS011;58277;47.316;18.908;2022-12-22T09:51:18;92.20;;;31.80;;
70707;SDS011;58277;47.316;18.908;2022-12-22T09:53:52;85.70;;;30.07;;
70707;SDS011;58277;47.316;18.908;2022-12-22T09:56:18;91.95;;;30.20;;
70707;SDS011;58277;47.316;18.908;2022-12-22T09:58:41;94.75;;;31.30;;
70707;SDS011;58277;47.316;18.908;2022-12-22T10:03:53;89.45;;;29.52;;
70707;SDS011;58277;47.316;18.908;2022-12-22T10:09:18;86.05;;;28.30;;
70707;SDS011;58277;47.316;18.908;2022-12-22T10:12:04;84.57;;;29.35;;
70707;SDS011;58277;47.316;18.908;2022-12-22T10:14:39;89.10;;;29.23;;
70707;SDS011;58277;47.316;18.908;2022-12-22T10:19:41;91.50;;;27.80;;
70707;SDS011;58277;47.316;18.908;2022-12-22T10:24:54;84.30;;;27.20;;
70707;SDS011;58277;47.316;18.908;2022-12-22T10:27:17;97.47;;;30.35;;
70707;SDS011;58277;47.316;18.908;2022-12-22T10:29:51;106.32;;;29.38;;
70707;SDS011;58277;47.316;18.908;2022-12-22T10:32:15;90.00;;;29.87;;
70707;SDS011;58277;47.316;18.908;2022-12-22T10:37:36;82.43;;;27.55;;
70707;SDS011;58277;47.316;18.908;2022-12-22T10:40:16;78.70;;;27.60;;
70707;SDS011;58277;47.316;18.908;2022-12-22T10:42:43;85.75;;;28.52;;
70707;SDS011;58277;47.316;18.908;2022-12-22T10:45:12;85.53;;;28.30;;
70707;SDS011;58277;47.316;18.908;2022-12-22T10:47:39;85.40;;;29.02;;
70707;SDS011;58277;47.316;18.908;2022-12-22T10:50:12;88.75;;;28.00;;
70707;SDS011;58277;47.316;18.908;2022-12-22T10:52:35;83.03;;;27.17;;
70707;SDS011;58277;47.316;18.908;2022-12-22T10:55:14;79.95;;;27.02;;
70707;SDS011;58277;47.316;18.908;2022-12-22T10:57:48;76.30;;;27.60;;
70707;SDS011;58277;47.316;18.908;2022-12-22T11:00:22;80.65;;;28.13;;
70707;SDS011;58277;47.316;18.908;2022-12-22T11:02:51;87.18;;;29.20;;
70707;SDS011;58277;47.316;18.908;2022-12-22T11:05:15;83.90;;;27.98;;
70707;SDS011;58277;47.316;18.908;2022-12-22T11:07:39;84.47;;;29.63;;
70707;SDS011;58277;47.316;18.908;2022-12-22T11:10:10;93.27;;;30.47;;
70707;SDS011;58277;47.316;18.908;2022-12-22T11:15:16;95.32;;;30.80;;
70707;SDS011;58277;47.316;18.908;2022-12-22T11:23:38;86.70;;;32.43;;
70707;SDS011;58277;47.316;18.908;2022-12-22T11:26:42;95.03;;;32.33;;
70707;SDS011;58277;47.316;18.908;2022-12-22T11:45:25;90.22;;;30.55;;
70707;SDS011;58277;47.316;18.908;2022-12-22T11:50:59;83.27;;;30.63;;
70707;SDS011;58277;47.316;18.908;2022-12-22T11:53:46;83.45;;;28.98;;
70707;SDS011;58277;47.316;18.908;2022-12-22T12:04:09;84.43;;;29.20;;
70707;SDS011;58277;47.316;18.908;2022-12-22T12:06:41;92.05;;;30.15;;
70707;SDS011;58277;47.316;18.908;2022-12-22T12:17:42;87.63;;;29.07;;
70707;SDS011;58277;47.316;18.908;2022-12-22T12:20:15;84.32;;;28.00;;
70707;SDS011;58277;47.316;18.908;2022-12-22T12:22:53;93.38;;;30.92;;
70707;SDS011;58277;47.316;18.908;2022-12-22T12:25:42;87.13;;;29.35;;
70707;SDS011;58277;47.316;18.908;2022-12-22T12:28:16;86.50;;;30.58;;
70707;SDS011;58277;47.316;18.908;2022-12-22T12:30:55;87.07;;;30.90;;
70707;SDS011;58277;47.316;18.908;2022-12-22T12:36:01;92.30;;;30.58;;
70707;SDS011;58277;47.316;18.908;2022-12-22T12:44:12;94.37;;;32.57;;
70707;SDS011;58277;47.316;18.908;2022-12-22T12:51:59;92.65;;;33.03;;
70707;SDS011;58277;47.316;18.908;2022-12-22T12:57:09;88.70;;;31.63;;
70707;SDS011;58277;47.316;18.908;2022-12-22T12:59:44;87.13;;;31.08;;
70707;SDS011;58277;47.316;18.908;2022-12-22T13:10:41;83.07;;;28.20;;
70707;SDS011;58277;47.316;18.908;2022-12-22T13:13:04;91.25;;;30.67;;
70707;SDS011;58277;47.316;18.908;2022-12-22T13:15:32;95.78;;;31.10;;
70707;SDS011;58277;47.316;18.908;2022-12-22T13:17:57;89.07;;;32.10;;
70707;SDS011;58277;47.316;18.908;2022-12-22T13:20:29;88.72;;;30.55;;
70707;SDS011;58277;47.316;18.908;2022-12-22T13:22:54;92.33;;;31.37;;
70707;SDS011;58277;47.316;18.908;2022-12-22T13:25:19;90.10;;;30.73;;
70707;SDS011;58277;47.316;18.908;2022-12-22T13:27:43;91.43;;;31.25;;
70707;SDS011;58277;47.316;18.908;2022-12-22T13:30:13;84.18;;;30.48;;
70707;SDS011;58277;47.316;18.908;2022-12-22T13:32:37;85.55;;;29.50;;
70707;SDS011;58277;47.316;18.908;2022-12-22T13:35:03;93.33;;;30.93;;
70707;SDS011;58277;47.316;18.908;2022-12-22T13:38:02;87.63;;;29.35;;
70707;SDS011;58277;47.316;18.908;2022-12-22T13:40:26;91.03;;;30.45;;
70707;SDS011;58277;47.316;18.908;2022-12-22T13:45:38;98.20;;;31.23;;
70707;SDS011;58277;47.316;18.908;2022-12-22T13:48:11;93.97;;;30.47;;
70707;SDS011;58277;47.316;18.908;2022-12-22T13:50:41;92.88;;;31.65;;
70707;SDS011;58277;47.316;18.908;2022-12-22T13:53:13;97.22;;;31.20;;
70707;SDS011;58277;47.316;18.908;2022-12-22T13:55:59;98.25;;;32.40;;
70707;SDS011;58277;47.316;18.908;2022-12-22T13:58:29;96.15;;;30.98;;
70707;SDS011;58277;47.316;18.908;2022-12-22T14:03:33;98.93;;;31.60;;
70707;SDS011;58277;47.316;18.908;2022-12-22T14:06:26;99.18;;;32.00;;
70707;SDS011;58277;47.316;18.908;2022-12-22T14:11:36;104.43;;;33.42;;
70707;SDS011;58277;47.316;18.908;2022-12-22T14:13:59;98.65;;;31.65;;
70707;SDS011;58277;47.316;18.908;2022-12-22T14:16:22;93.65;;;32.05;;
70707;SDS011;58277;47.316;18.908;2022-12-22T14:18:45;95.67;;;31.17;;
70707;SDS011;58277;47.316;18.908;2022-12-22T14:21:08;96.82;;;32.88;;
70707;SDS011;58277;47.316;18.908;2022-12-22T14:23:33;99.55;;;32.40;;
70707;SDS011;58277;47.316;18.908;2022-12-22T14:26:04;98.03;;;32.10;;
70707;SDS011;58277;47.316;18.908;2022-12-22T14:28:33;91.97;;;31.45;;
70707;SDS011;58277;47.316;18.908;2022-12-22T14:31:01;93.03;;;30.97;;
70707;SDS011;58277;47.316;18.908;2022-12-22T14:33:30;94.25;;;31.50;;
70707;SDS011;58277;47.316;18.908;2022-12-22T14:38:39;95.03;;;31.33;;
70707;SDS011;58277;47.316;18.908;2022-12-22T14:41:11;102.05;;;32.38;;
70707;SDS011;58277;47.316;18.908;2022-12-22T14:44:04;93.97;;;29.90;;
70707;SDS011;58277;47.316;18.908;2022-12-22T14:46:27;94.40;;;31.98;;
70707;SDS011;58277;47.316;18.908;2022-12-22T14:48:59;89.65;;;32.08;;
70707;SDS011;58277;47.316;18.908;2022-12-22T14:51:22;97.85;;;30.35;;
70707;SDS011;58277;47.316;18.908;2022-12-22T14:53:53;93.28;;;30.70;;
70707;SDS011;58277;47.316;18.908;2022-12-22T14:56:18;91.67;;;30.07;;
70707;SDS011;58277;47.316;18.908;2022-12-22T14:58:43;90.75;;;30.50;;
70707;SDS011;58277;47.316;18.908;2022-12-22T15:03:39;93.47;;;29.77;;
70707;SDS011;58277;47.316;18.908;2022-12-22T15:06:21;99.43;;;31.10;;
70707;SDS011;58277;47.316;18.908;2022-12-22T15:08:49;104.53;;;32.10;;
70707;SDS011;58277;47.316;18.908;2022-12-22T15:11:16;105.95;;;30.92;;
70707;SDS011;58277;47.316;18.908;2022-12-22T15:13:40;108.18;;;33.03;;
70707;SDS011;58277;47.316;18.908;2022-12-22T15:16:04;110.40;;;31.85;;
70707;SDS011;58277;47.316;18.908;2022-12-22T15:18:27;109.32;;;32.28;;
70707;SDS011;58277;47.316;18.908;2022-12-22T15:20:50;104.10;;;31.37;;
70707;SDS011;58277;47.316;18.908;2022-12-22T15:23:14;101.03;;;32.05;;
70707;SDS011;58277;47.316;18.908;2022-12-22T15:25:40;100.45;;;33.30;;
70707;SDS011;58277;47.316;18.908;2022-12-22T15:28:02;107.60;;;33.65;;
70707;SDS011;58277;47.316;18.908;2022-12-22T15:30:25;106.05;;;35.38;;
70707;SDS011;58277;47.316;18.908;2022-12-22T15:32:53;104.43;;;33.47;;
70707;SDS011;58277;47.316;18.908;2022-12-22T15:35:29;109.03;;;34.38;;
70707;SDS011;58277;47.316;18.908;2022-12-22T15:37:53;112.32;;;33.58;;
70707;SDS011;58277;47.316;18.908;2022-12-22T15:40:17;106.80;;;34.65;;
70707;SDS011;58277;47.316;18.908;2022-12-22T15:42:41;102.88;;;34.03;;
70707;SDS011;58277;47.316;18.908;2022-12-22T15:45:04;112.17;;;32.90;;
70707;SDS011;58277;47.316;18.908;2022-12-22T15:47:27;110.00;;;34.13;;
70707;SDS011;58277;47.316;18.908;2022-12-22T15:49:53;118.93;;;34.15;;
70707;SDS011;58277;47.316;18.908;2022-12-22T15:52:16;117.05;;;34.20;;
70707;SDS011;58277;47.316;18.908;2022-12-22T15:57:45;116.57;;;33.63;;
70707;SDS011;58277;47.316;18.908;2022-12-22T16:00:14;123.80;;;35.08;;
70707;SDS011;58277;47.316;18.908;2022-12-22T16:02:37;121.22;;;36.15;;
70707;SDS011;58277;47.316;18.908;2022-12-22T16:05:01;116.88;;;35.70;;
70707;SDS011;58277;47.316;18.908;2022-12-22T16:07:24;114.88;;;35.67;;
70707;SDS011;58277;47.316;18.908;2022-12-22T16:09:47;116.67;;;34.03;;
70707;SDS011;58277;47.316;18.908;2022-12-22T16:12:16;116.88;;;36.05;;
70707;SDS011;58277;47.316;18.908;2022-12-22T16:14:40;128.20;;;36.50;;
70707;SDS011;58277;47.316;18.908;2022-12-22T16:17:18;113.90;;;35.50;;
70707;SDS011;58277;47.316;18.908;2022-12-22T16:19:43;123.32;;;36.95;;
70707;SDS011;58277;47.316;18.908;2022-12-22T16:22:09;117.10;;;35.57;;
70707;SDS011;58277;47.316;18.908;2022-12-22T16:24:33;119.03;;;35.35;;
70707;SDS011;58277;47.316;18.908;2022-12-22T16:26:59;118.55;;;35.67;;